sensor_id;sensor_type;location;lat;lon;timestamp;pressure;altitude;pressure_sealevel;temperature;humidity
46506;BME280;32220;49.808;9.968;2023-07-31T00:02:00;98762.59;;;20.26;52.77
46506;BME280;32220;49.808;9.968;2023-07-31T00:04:29;98759.72;;;20.27;52.45
46506;BME280;32220;49.808;9.968;2023-07-31T00:06:57;98751.28;;;20.22;52.74
46506;BME280;32220;49.808;9.968;2023-07-31T00:09:25;98749.78;;;20.28;52.88
46506;BME280;32220;49.808;9.968;2023-07-31T00:11:52;98760.53;;;20.28;52.82
46506;BME280;32220;49.808;9.968;2023-07-31T00:14:20;98760.72;;;20.26;52.57
46506;BME280;32220;49.808;9.968;2023-07-31T00:16:48;98761.72;;;20.25;52.93
46506;BME280;32220;49.808;9.968;2023-07-31T00:19:15;98744.59;;;20.26;53.07
46506;BME280;32220;49.808;9.968;2023-07-31T00:21:45;98746.91;;;20.21;53.04
46506;BME280;32220;49.808;9.968;2023-07-31T00:24:12;98756.34;;;20.25;53.12
46506;BME280;32220;49.808;9.968;2023-07-31T00:26:40;98758.03;;;20.26;53.19
46506;BME280;32220;49.808;9.968;2023-07-31T00:29:08;98755.50;;;20.25;53.64
46506;BME280;32220;49.808;9.968;2023-07-31T00:31:37;98746.38;;;20.18;53.12
46506;BME280;32220;49.808;9.968;2023-07-31T00:34:04;98744.53;;;20.18;53.28
46506;BME280;32220;49.808;9.968;2023-07-31T00:59:25;98732.50;;;19.79;55.35
46506;BME280;32220;49.808;9.968;2023-07-31T01:01:52;98728.50;;;19.83;54.99
46506;BME280;32220;49.808;9.968;2023-07-31T01:04:21;98730.91;;;19.86;55.12
46506;BME280;32220;49.808;9.968;2023-07-31T01:06:56;98724.81;;;19.84;55.48
46506;BME280;32220;49.808;9.968;2023-07-31T01:09:34;98723.13;;;19.83;55.09
46506;BME280;32220;49.808;9.968;2023-07-31T01:12:06;98719.16;;;19.87;55.34
46506;BME280;32220;49.808;9.968;2023-07-31T01:14:36;98727.06;;;19.88;55.49
46506;BME280;32220;49.808;9.968;2023-07-31T01:17:04;98722.28;;;19.82;55.52
46506;BME280;32220;49.808;9.968;2023-07-31T01:19:32;98720.09;;;19.78;55.71
46506;BME280;32220;49.808;9.968;2023-07-31T01:22:16;98705.28;;;19.73;55.67
46506;BME280;32220;49.808;9.968;2023-07-31T01:24:56;98716.38;;;19.79;55.48
46506;BME280;32220;49.808;9.968;2023-07-31T01:27:31;98717.41;;;19.78;55.38
46506;BME280;32220;49.808;9.968;2023-07-31T01:30:07;98705.97;;;19.76;55.84
46506;BME280;32220;49.808;9.968;2023-07-31T01:32:39;98701.22;;;19.69;56.10
46506;BME280;32220;49.808;9.968;2023-07-31T01:35:08;98695.84;;;19.69;56.09
46506;BME280;32220;49.808;9.968;2023-07-31T01:37:36;98691.63;;;19.67;56.33
46506;BME280;32220;49.808;9.968;2023-07-31T01:40:06;98692.16;;;19.70;55.93
46506;BME280;32220;49.808;9.968;2023-07-31T01:42:35;98690.47;;;19.69;55.94
46506;BME280;32220;49.808;9.968;2023-07-31T01:45:04;98690.47;;;19.69;56.17
46506;BME280;32220;49.808;9.968;2023-07-31T01:47:32;98689.47;;;19.70;56.45
46506;BME280;32220;49.808;9.968;2023-07-31T01:50:00;98683.41;;;19.68;56.30
46506;BME280;32220;49.808;9.968;2023-07-31T01:52:27;98687.09;;;19.67;56.65
46506;BME280;32220;49.808;9.968;2023-07-31T01:54:56;98688.78;;;19.68;56.47
46506;BME280;32220;49.808;9.968;2023-07-31T01:57:24;98667.94;;;19.62;56.89
46506;BME280;32220;49.808;9.968;2023-07-31T01:59:53;98683.91;;;19.64;56.53
46506;BME280;32220;49.808;9.968;2023-07-31T02:02:21;98683.19;;;19.62;56.34
46506;BME280;32220;49.808;9.968;2023-07-31T02:04:50;98678.97;;;19.59;56.80
46506;BME280;32220;49.808;9.968;2023-07-31T02:07:17;98677.28;;;19.58;56.84
46506;BME280;32220;49.808;9.968;2023-07-31T02:09:45;98668.22;;;19.59;56.43
46506;BME280;32220;49.808;9.968;2023-07-31T02:12:14;98668.22;;;19.59;56.50
46506;BME280;32220;49.808;9.968;2023-07-31T02:14:42;98671.06;;;19.58;56.83
46506;BME280;32220;49.808;9.968;2023-07-31T02:17:12;98669.94;;;19.60;56.63
46506;BME280;32220;49.808;9.968;2023-07-31T02:19:40;98666.53;;;19.58;57.09
46506;BME280;32220;49.808;9.968;2023-07-31T02:22:08;98656.09;;;19.55;56.94
46506;BME280;32220;49.808;9.968;2023-07-31T02:24:35;98651.22;;;19.51;57.03
46506;BME280;32220;49.808;9.968;2023-07-31T02:27:04;98650.81;;;19.46;57.06
46506;BME280;32220;49.808;9.968;2023-07-31T02:29:32;98622.94;;;19.21;57.43
46506;BME280;32220;49.808;9.968;2023-07-31T02:32:00;98655.28;;;19.37;57.56
46506;BME280;32220;49.808;9.968;2023-07-31T02:34:29;98652.06;;;19.33;57.75
46506;BME280;32220;49.808;9.968;2023-07-31T02:36:57;98648.69;;;19.31;57.35
46506;BME280;32220;49.808;9.968;2023-07-31T02:39:26;98634.91;;;19.26;57.45
46506;BME280;32220;49.808;9.968;2023-07-31T02:41:54;98645.41;;;19.20;57.70
46506;BME280;32220;49.808;9.968;2023-07-31T02:44:23;98636.59;;;19.10;57.72
46506;BME280;32220;49.808;9.968;2023-07-31T02:46:51;98639.28;;;19.10;57.95
46506;BME280;32220;49.808;9.968;2023-07-31T02:49:19;98630.84;;;19.05;58.22
46506;BME280;32220;49.808;9.968;2023-07-31T02:51:48;98640.91;;;19.02;58.26
46506;BME280;32220;49.808;9.968;2023-07-31T02:54:16;98647.56;;;18.98;58.36
46506;BME280;32220;49.808;9.968;2023-07-31T02:56:44;98644.59;;;19.01;58.14
46506;BME280;32220;49.808;9.968;2023-07-31T02:59:11;98629.72;;;18.89;57.95
46506;BME280;32220;49.808;9.968;2023-07-31T03:01:39;98638.53;;;18.99;58.21
46506;BME280;32220;49.808;9.968;2023-07-31T03:04:08;98620.00;;;18.88;58.59
46506;BME280;32220;49.808;9.968;2023-07-31T03:06:42;98638.47;;;18.91;58.14
46506;BME280;32220;49.808;9.968;2023-07-31T03:09:11;98628.78;;;18.81;58.40
46506;BME280;32220;49.808;9.968;2023-07-31T03:11:39;98652.94;;;18.98;58.72
46506;BME280;32220;49.808;9.968;2023-07-31T03:14:07;98650.41;;;18.97;58.64
46506;BME280;32220;49.808;9.968;2023-07-31T03:16:35;98654.34;;;19.02;58.52
46506;BME280;32220;49.808;9.968;2023-07-31T03:19:02;98650.81;;;19.02;58.27
46506;BME280;32220;49.808;9.968;2023-07-31T03:21:30;98641.06;;;19.01;58.60
46506;BME280;32220;49.808;9.968;2023-07-31T03:23:58;98632.16;;;19.00;58.66
46506;BME280;32220;49.808;9.968;2023-07-31T03:26:27;98632.53;;;19.06;58.56
46506;BME280;32220;49.808;9.968;2023-07-31T03:28:56;98634.22;;;19.07;58.76
46506;BME280;32220;49.808;9.968;2023-07-31T03:31:23;98627.69;;;19.09;58.51
46506;BME280;32220;49.808;9.968;2023-07-31T03:33:52;98633.75;;;19.11;58.49
46506;BME280;32220;49.808;9.968;2023-07-31T03:36:20;98631.09;;;19.11;58.80
46506;BME280;32220;49.808;9.968;2023-07-31T03:38:48;98638.97;;;19.13;58.32
46506;BME280;32220;49.808;9.968;2023-07-31T03:41:17;98631.22;;;19.10;58.99
46506;BME280;32220;49.808;9.968;2023-07-31T03:43:50;98631.63;;;19.15;58.90
46506;BME280;32220;49.808;9.968;2023-07-31T03:46:19;98629.94;;;19.14;59.05
46506;BME280;32220;49.808;9.968;2023-07-31T03:48:48;98631.94;;;19.12;59.13
46506;BME280;32220;49.808;9.968;2023-07-31T03:51:16;98640.66;;;19.14;59.11
46506;BME280;32220;49.808;9.968;2023-07-31T03:53:44;98621.94;;;19.04;59.10
46506;BME280;32220;49.808;9.968;2023-07-31T03:56:12;98641.28;;;19.08;59.17
46506;BME280;32220;49.808;9.968;2023-07-31T03:58:40;98633.72;;;19.03;58.92
46506;BME280;32220;49.808;9.968;2023-07-31T04:01:09;98629.78;;;18.97;59.45
46506;BME280;32220;49.808;9.968;2023-07-31T04:03:37;98628.09;;;18.96;59.67
46506;BME280;32220;49.808;9.968;2023-07-31T04:06:05;98645.88;;;18.97;59.08
46506;BME280;32220;49.808;9.968;2023-07-31T04:08:33;98615.97;;;18.92;59.46
46506;BME280;32220;49.808;9.968;2023-07-31T04:11:01;98614.13;;;18.93;59.24
46506;BME280;32220;49.808;9.968;2023-07-31T04:13:29;98638.59;;;19.08;59.35
46506;BME280;32220;49.808;9.968;2023-07-31T04:15:57;98627.84;;;19.08;59.71
46506;BME280;32220;49.808;9.968;2023-07-31T04:18:27;98633.91;;;19.10;59.56
46506;BME280;32220;49.808;9.968;2023-07-31T04:20:57;98607.47;;;18.97;59.22
46506;BME280;32220;49.808;9.968;2023-07-31T04:23:27;98632.13;;;19.18;58.77
46506;BME280;32220;49.808;9.968;2023-07-31T04:25:55;98618.88;;;19.17;58.68
46506;BME280;32220;49.808;9.968;2023-07-31T04:28:23;98632.72;;;19.30;58.86
46506;BME280;32220;49.808;9.968;2023-07-31T04:30:52;98640.47;;;19.33;58.57
46506;BME280;32220;49.808;9.968;2023-07-31T04:33:20;98632.81;;;19.38;58.58
46506;BME280;32220;49.808;9.968;2023-07-31T04:35:53;98638.53;;;19.43;58.44
46506;BME280;32220;49.808;9.968;2023-07-31T04:38:21;98644.59;;;19.45;58.54
46506;BME280;32220;49.808;9.968;2023-07-31T04:40:49;98639.22;;;19.45;58.05
46506;BME280;32220;49.808;9.968;2023-07-31T04:43:17;98636.22;;;19.48;58.62
46506;BME280;32220;49.808;9.968;2023-07-31T04:45:45;98634.28;;;19.50;58.43
46506;BME280;32220;49.808;9.968;2023-07-31T04:48:13;98632.78;;;19.56;58.38
46506;BME280;32220;49.808;9.968;2023-07-31T04:50:41;98644.91;;;19.60;57.83
46506;BME280;32220;49.808;9.968;2023-07-31T04:53:10;98638.06;;;19.65;57.76
46506;BME280;32220;49.808;9.968;2023-07-31T04:55:38;98628.34;;;19.72;57.64
46506;BME280;32220;49.808;9.968;2023-07-31T04:58:06;98623.97;;;19.71;58.05
46506;BME280;32220;49.808;9.968;2023-07-31T05:00:34;98633.28;;;19.85;57.23
46506;BME280;32220;49.808;9.968;2023-07-31T05:03:02;98623.72;;;19.91;56.77
46506;BME280;32220;49.808;9.968;2023-07-31T05:05:31;98627.47;;;19.98;57.16
46506;BME280;32220;49.808;9.968;2023-07-31T05:07:59;98633.38;;;20.01;56.99
46506;BME280;32220;49.808;9.968;2023-07-31T05:10:28;98627.50;;;20.06;56.76
46506;BME280;32220;49.808;9.968;2023-07-31T05:12:56;98619.97;;;20.09;57.14
46506;BME280;32220;49.808;9.968;2023-07-31T05:15:24;98617.97;;;20.12;57.01
46506;BME280;32220;49.808;9.968;2023-07-31T05:17:51;98626.22;;;20.18;56.59
46506;BME280;32220;49.808;9.968;2023-07-31T05:20:19;98623.22;;;20.29;57.08
46506;BME280;32220;49.808;9.968;2023-07-31T05:22:47;98621.22;;;20.31;56.51
46506;BME280;32220;49.808;9.968;2023-07-31T05:25:15;98634.09;;;20.46;55.84
46506;BME280;32220;49.808;9.968;2023-07-31T05:27:45;98617.94;;;20.46;56.25
46506;BME280;32220;49.808;9.968;2023-07-31T05:30:13;98624.19;;;20.54;55.42
46506;BME280;32220;49.808;9.968;2023-07-31T05:32:40;98628.22;;;20.58;55.69
46506;BME280;32220;49.808;9.968;2023-07-31T05:35:08;98624.03;;;20.56;55.72
46506;BME280;32220;49.808;9.968;2023-07-31T05:37:36;98613.56;;;20.53;55.25
46506;BME280;32220;49.808;9.968;2023-07-31T05:40:05;98633.97;;;20.71;55.28
46506;BME280;32220;49.808;9.968;2023-07-31T05:42:33;98637.88;;;20.77;55.36
46506;BME280;32220;49.808;9.968;2023-07-31T05:45:05;98631.97;;;20.90;55.21
46506;BME280;32220;49.808;9.968;2023-07-31T05:47:33;98630.81;;;20.92;54.74
46506;BME280;32220;49.808;9.968;2023-07-31T05:50:01;98623.94;;;20.98;54.56
46506;BME280;32220;49.808;9.968;2023-07-31T05:52:29;98641.59;;;21.16;54.02
46506;BME280;32220;49.808;9.968;2023-07-31T05:54:57;98650.38;;;21.27;54.18
46506;BME280;32220;49.808;9.968;2023-07-31T05:57:25;98629.66;;;21.27;53.50
46506;BME280;32220;49.808;9.968;2023-07-31T05:59:53;98640.09;;;21.46;53.50
46506;BME280;32220;49.808;9.968;2023-07-31T06:02:22;98616.88;;;21.45;53.04
46506;BME280;32220;49.808;9.968;2023-07-31T06:04:50;98629.31;;;21.63;52.55
46506;BME280;32220;49.808;9.968;2023-07-31T06:07:18;98621.34;;;21.77;52.79
46506;BME280;32220;49.808;9.968;2023-07-31T06:09:45;98629.75;;;21.99;52.34
46506;BME280;32220;49.808;9.968;2023-07-31T06:12:13;98638.59;;;22.15;52.08
46506;BME280;32220;49.808;9.968;2023-07-31T06:14:44;98640.91;;;22.27;51.29
46506;BME280;32220;49.808;9.968;2023-07-31T06:17:11;98637.53;;;22.33;51.25
46506;BME280;32220;49.808;9.968;2023-07-31T06:19:41;98646.78;;;22.38;50.57
46506;BME280;32220;49.808;9.968;2023-07-31T06:22:09;98646.06;;;22.44;50.92
46506;BME280;32220;49.808;9.968;2023-07-31T06:24:37;98648.25;;;22.49;50.53
46506;BME280;32220;49.808;9.968;2023-07-31T06:27:05;98643.72;;;22.49;50.02
46506;BME280;32220;49.808;9.968;2023-07-31T06:29:33;98650.41;;;22.53;50.56
46506;BME280;32220;49.808;9.968;2023-07-31T06:32:01;98653.44;;;22.58;50.35
46506;BME280;32220;49.808;9.968;2023-07-31T06:34:29;98650.06;;;22.56;50.23
46506;BME280;32220;49.808;9.968;2023-07-31T06:36:59;98651.47;;;22.44;50.28
46506;BME280;32220;49.808;9.968;2023-07-31T06:39:27;98664.25;;;22.50;50.14
46506;BME280;32220;49.808;9.968;2023-07-31T06:41:54;98657.50;;;22.54;50.23
46506;BME280;32220;49.808;9.968;2023-07-31T06:44:22;98663.50;;;22.65;50.38
46506;BME280;32220;49.808;9.968;2023-07-31T06:46:50;98670.88;;;22.79;50.23
46506;BME280;32220;49.808;9.968;2023-07-31T06:49:18;98668.34;;;22.85;50.36
46506;BME280;32220;49.808;9.968;2023-07-31T06:51:46;98668.09;;;22.95;49.92
46506;BME280;32220;49.808;9.968;2023-07-31T06:54:15;98652.56;;;22.97;49.75
46506;BME280;32220;49.808;9.968;2023-07-31T06:56:43;98666.94;;;23.12;50.00
46506;BME280;32220;49.808;9.968;2023-07-31T06:59:11;98675.59;;;23.08;48.94
46506;BME280;32220;49.808;9.968;2023-07-31T07:01:38;98670.03;;;23.09;49.48
46506;BME280;32220;49.808;9.968;2023-07-31T07:04:09;98674.34;;;23.18;49.54
46506;BME280;32220;49.808;9.968;2023-07-31T07:09:53;98670.56;;;23.27;49.11
46506;BME280;32220;49.808;9.968;2023-07-31T07:12:21;98670.50;;;23.36;48.89
46506;BME280;32220;49.808;9.968;2023-07-31T07:14:49;98664.44;;;23.56;48.23
46506;BME280;32220;49.808;9.968;2023-07-31T07:17:16;98614.63;;;23.51;48.18
46506;BME280;32220;49.808;9.968;2023-07-31T07:19:44;98651.22;;;23.76;47.97
46506;BME280;32220;49.808;9.968;2023-07-31T07:22:13;98660.38;;;23.90;47.64
46506;BME280;32220;49.808;9.968;2023-07-31T07:24:56;98651.97;;;23.99;47.55
46506;BME280;32220;49.808;9.968;2023-07-31T07:27:23;98666.53;;;24.13;47.31
46506;BME280;32220;49.808;9.968;2023-07-31T07:29:52;98661.16;;;24.28;47.42
46506;BME280;32220;49.808;9.968;2023-07-31T07:32:20;98661.44;;;24.33;46.75
46506;BME280;32220;49.808;9.968;2023-07-31T07:34:48;98662.19;;;24.27;46.67
46506;BME280;32220;49.808;9.968;2023-07-31T07:37:16;98648.00;;;24.25;47.05
46506;BME280;32220;49.808;9.968;2023-07-31T07:39:44;98642.56;;;24.25;46.44
46506;BME280;32220;49.808;9.968;2023-07-31T07:42:13;98659.75;;;24.32;46.78
46506;BME280;32220;49.808;9.968;2023-07-31T07:44:41;98651.47;;;24.33;46.68
46506;BME280;32220;49.808;9.968;2023-07-31T07:47:09;98652.75;;;24.38;46.66
46506;BME280;32220;49.808;9.968;2023-07-31T07:49:37;98653.06;;;24.64;46.27
46506;BME280;32220;49.808;9.968;2023-07-31T07:52:05;98653.88;;;24.94;45.50
46506;BME280;32220;49.808;9.968;2023-07-31T07:54:33;98650.19;;;25.23;45.74
46506;BME280;32220;49.808;9.968;2023-07-31T07:57:01;98641.28;;;25.78;44.37
46506;BME280;32220;49.808;9.968;2023-07-31T07:59:30;98635.59;;;26.01;44.04
46506;BME280;32220;49.808;9.968;2023-07-31T08:01:58;98614.34;;;26.04;43.52
46506;BME280;32220;49.808;9.968;2023-07-31T08:04:26;98645.41;;;26.30;43.60
46506;BME280;32220;49.808;9.968;2023-07-31T08:06:54;98642.59;;;26.23;43.16
46506;BME280;32220;49.808;9.968;2023-07-31T08:09:21;98645.69;;;26.13;43.11
46506;BME280;32220;49.808;9.968;2023-07-31T08:11:49;98646.06;;;26.04;43.03
46506;BME280;32220;49.808;9.968;2023-07-31T08:14:17;98636.34;;;25.88;43.62
46506;BME280;32220;49.808;9.968;2023-07-31T08:16:46;98630.59;;;25.70;43.85
46506;BME280;32220;49.808;9.968;2023-07-31T08:19:14;98629.13;;;25.67;44.29
46506;BME280;32220;49.808;9.968;2023-07-31T08:21:41;98637.63;;;25.92;44.37
46506;BME280;32220;49.808;9.968;2023-07-31T08:24:09;98627.66;;;25.99;44.16
46506;BME280;32220;49.808;9.968;2023-07-31T08:26:37;98641.69;;;26.09;43.44
46506;BME280;32220;49.808;9.968;2023-07-31T08:29:05;98646.59;;;26.21;43.01
46506;BME280;32220;49.808;9.968;2023-07-31T08:31:35;98648.66;;;26.19;43.36
46506;BME280;32220;49.808;9.968;2023-07-31T08:34:04;98633.59;;;26.16;43.30
46506;BME280;32220;49.808;9.968;2023-07-31T08:36:32;98649.53;;;26.26;43.47
46506;BME280;32220;49.808;9.968;2023-07-31T08:39:00;98642.63;;;26.58;42.88
46506;BME280;32220;49.808;9.968;2023-07-31T08:41:27;98653.63;;;27.04;42.20
46506;BME280;32220;49.808;9.968;2023-07-31T08:43:55;98646.38;;;27.70;41.78
46506;BME280;32220;49.808;9.968;2023-07-31T08:46:26;98660.41;;;27.87;40.20
46506;BME280;32220;49.808;9.968;2023-07-31T08:50:15;98658.72;;;27.86;39.90
46506;BME280;32220;49.808;9.968;2023-07-31T08:56:06;98662.38;;;28.51;39.19
46506;BME280;32220;49.808;9.968;2023-07-31T08:59:40;98642.56;;;28.24;39.67
46506;BME280;32220;49.808;9.968;2023-07-31T09:02:09;98639.56;;;28.39;39.94
46506;BME280;32220;49.808;9.968;2023-07-31T09:04:37;98635.66;;;29.11;38.85
46506;BME280;32220;49.808;9.968;2023-07-31T09:07:08;98638.75;;;29.52;38.03
46506;BME280;32220;49.808;9.968;2023-07-31T09:09:36;98646.16;;;29.70;37.35
46506;BME280;32220;49.808;9.968;2023-07-31T09:12:05;98637.28;;;29.75;37.56
46506;BME280;32220;49.808;9.968;2023-07-31T09:14:35;98643.38;;;30.02;36.59
46506;BME280;32220;49.808;9.968;2023-07-31T09:17:03;98655.00;;;30.52;35.80
46506;BME280;32220;49.808;9.968;2023-07-31T09:19:33;98654.78;;;30.35;36.58
46506;BME280;32220;49.808;9.968;2023-07-31T09:22:04;98648.38;;;30.05;36.77
46506;BME280;32220;49.808;9.968;2023-07-31T09:24:34;98637.19;;;29.63;36.94
46506;BME280;32220;49.808;9.968;2023-07-31T09:27:03;98646.09;;;29.52;37.59
46506;BME280;32220;49.808;9.968;2023-07-31T09:29:31;98643.47;;;29.39;37.32
46506;BME280;32220;49.808;9.968;2023-07-31T09:31:58;98630.69;;;29.39;38.01
46506;BME280;32220;49.808;9.968;2023-07-31T09:34:31;98601.28;;;29.35;37.51
46506;BME280;32220;49.808;9.968;2023-07-31T09:37:05;98611.00;;;29.55;37.74
46506;BME280;32220;49.808;9.968;2023-07-31T09:39:45;98617.34;;;30.17;36.91
46506;BME280;32220;49.808;9.968;2023-07-31T09:42:13;98608.25;;;30.90;36.55
46506;BME280;32220;49.808;9.968;2023-07-31T09:44:42;98621.94;;;31.20;35.75
46506;BME280;32220;49.808;9.968;2023-07-31T09:47:21;98622.81;;;31.02;35.45
46506;BME280;32220;49.808;9.968;2023-07-31T09:49:50;98608.34;;;30.83;35.71
46506;BME280;32220;49.808;9.968;2023-07-31T09:52:18;98614.94;;;30.64;35.48
46506;BME280;32220;49.808;9.968;2023-07-31T09:54:47;98608.53;;;30.33;36.33
46506;BME280;32220;49.808;9.968;2023-07-31T09:57:17;98603.25;;;30.02;36.21
46506;BME280;32220;49.808;9.968;2023-07-31T09:59:46;98612.13;;;29.73;36.41
46506;BME280;32220;49.808;9.968;2023-07-31T10:02:20;98612.13;;;29.48;36.85
46506;BME280;32220;49.808;9.968;2023-07-31T10:04:49;98550.59;;;28.95;37.42
46506;BME280;32220;49.808;9.968;2023-07-31T10:07:18;98583.09;;;28.97;37.55
46506;BME280;32220;49.808;9.968;2023-07-31T10:09:49;98577.03;;;28.95;37.79
46506;BME280;32220;49.808;9.968;2023-07-31T10:12:22;98566.63;;;29.17;37.73
46506;BME280;32220;49.808;9.968;2023-07-31T10:14:54;98583.34;;;30.31;36.88
46506;BME280;32220;49.808;9.968;2023-07-31T10:17:22;98583.19;;;30.45;35.61
46506;BME280;32220;49.808;9.968;2023-07-31T10:19:51;98595.34;;;30.12;35.71
46506;BME280;32220;49.808;9.968;2023-07-31T10:22:19;98591.19;;;29.67;36.21
46506;BME280;32220;49.808;9.968;2023-07-31T10:24:50;98591.50;;;29.27;36.78
46506;BME280;32220;49.808;9.968;2023-07-31T10:27:20;98595.13;;;28.89;37.41
46506;BME280;32220;49.808;9.968;2023-07-31T10:29:48;98579.31;;;28.60;37.89
46506;BME280;32220;49.808;9.968;2023-07-31T10:32:18;98581.47;;;28.51;38.35
46506;BME280;32220;49.808;9.968;2023-07-31T10:34:48;98576.44;;;28.55;38.37
46506;BME280;32220;49.808;9.968;2023-07-31T10:37:20;98569.25;;;28.60;38.60
46506;BME280;32220;49.808;9.968;2023-07-31T10:40:02;98573.72;;;28.55;39.17
46506;BME280;32220;49.808;9.968;2023-07-31T10:42:31;98553.47;;;28.38;37.99
46506;BME280;32220;49.808;9.968;2023-07-31T10:45:03;98570.09;;;28.61;38.06
46506;BME280;32220;49.808;9.968;2023-07-31T10:47:36;98551.66;;;28.63;38.89
46506;BME280;32220;49.808;9.968;2023-07-31T10:50:17;98557.19;;;28.81;38.30
46506;BME280;32220;49.808;9.968;2023-07-31T10:52:47;98563.25;;;28.90;37.58
46506;BME280;32220;49.808;9.968;2023-07-31T10:55:27;98559.53;;;29.09;37.69
46506;BME280;32220;49.808;9.968;2023-07-31T10:57:57;98560.69;;;29.20;37.66
46506;BME280;32220;49.808;9.968;2023-07-31T11:00:27;98550.63;;;29.20;37.49
46506;BME280;32220;49.808;9.968;2023-07-31T11:02:59;98558.44;;;29.17;37.28
46506;BME280;32220;49.808;9.968;2023-07-31T11:05:44;98551.97;;;29.36;36.65
46506;BME280;32220;49.808;9.968;2023-07-31T11:08:13;98546.78;;;29.78;37.28
46506;BME280;32220;49.808;9.968;2023-07-31T11:10:44;98539.22;;;30.16;35.86
46506;BME280;32220;49.808;9.968;2023-07-31T11:13:13;98518.03;;;30.12;35.58
46506;BME280;32220;49.808;9.968;2023-07-31T11:15:41;98529.50;;;30.02;36.06
46506;BME280;32220;49.808;9.968;2023-07-31T11:18:09;98514.28;;;29.70;35.31
46506;BME280;32220;49.808;9.968;2023-07-31T11:20:38;98527.75;;;29.46;36.04
46506;BME280;32220;49.808;9.968;2023-07-31T11:23:12;98483.03;;;28.79;37.05
46506;BME280;32220;49.808;9.968;2023-07-31T11:25:40;98519.69;;;28.77;36.86
46506;BME280;32220;49.808;9.968;2023-07-31T11:28:48;98462.63;;;28.19;37.34
46506;BME280;32220;49.808;9.968;2023-07-31T11:31:17;98509.19;;;28.49;37.81
46506;BME280;32220;49.808;9.968;2023-07-31T11:33:45;98515.53;;;28.43;37.13
46506;BME280;32220;49.808;9.968;2023-07-31T11:36:17;98518.25;;;28.43;37.17
46506;BME280;32220;49.808;9.968;2023-07-31T11:38:45;98518.84;;;28.45;37.78
46506;BME280;32220;49.808;9.968;2023-07-31T11:41:15;98511.06;;;28.48;37.88
46506;BME280;32220;49.808;9.968;2023-07-31T11:43:43;98514.00;;;28.47;37.68
46506;BME280;32220;49.808;9.968;2023-07-31T11:46:13;98515.97;;;28.33;37.12
46506;BME280;32220;49.808;9.968;2023-07-31T11:48:41;98516.66;;;28.15;37.84
46506;BME280;32220;49.808;9.968;2023-07-31T11:51:10;98506.19;;;28.12;38.18
46506;BME280;32220;49.808;9.968;2023-07-31T11:53:41;98509.94;;;28.24;38.08
46506;BME280;32220;49.808;9.968;2023-07-31T11:59:35;98516.47;;;28.10;37.41
46506;BME280;32220;49.808;9.968;2023-07-31T12:02:05;98474.91;;;27.83;37.58
46506;BME280;32220;49.808;9.968;2023-07-31T12:04:33;98492.44;;;28.01;37.47
46506;BME280;32220;49.808;9.968;2023-07-31T12:07:01;98502.00;;;28.16;37.41
46506;BME280;32220;49.808;9.968;2023-07-31T12:09:29;98513.66;;;28.37;37.41
46506;BME280;32220;49.808;9.968;2023-07-31T12:11:56;98503.31;;;28.45;37.79
46506;BME280;32220;49.808;9.968;2023-07-31T12:14:26;98493.72;;;28.43;38.01
46506;BME280;32220;49.808;9.968;2023-07-31T12:16:55;98485.41;;;28.31;38.13
46506;BME280;32220;49.808;9.968;2023-07-31T12:19:25;98497.78;;;28.27;37.68
46506;BME280;32220;49.808;9.968;2023-07-31T12:21:54;98486.16;;;28.00;37.51
46506;BME280;32220;49.808;9.968;2023-07-31T12:24:22;98482.47;;;27.75;37.79
46506;BME280;32220;49.808;9.968;2023-07-31T12:26:50;98474.56;;;27.60;39.12
46506;BME280;32220;49.808;9.968;2023-07-31T12:29:18;98478.56;;;27.58;38.42
46506;BME280;32220;49.808;9.968;2023-07-31T12:31:46;98478.34;;;27.52;38.52
46506;BME280;32220;49.808;9.968;2023-07-31T12:34:18;98471.47;;;27.43;38.83
46506;BME280;32220;49.808;9.968;2023-07-31T12:36:48;98470.19;;;27.46;38.90
46506;BME280;32220;49.808;9.968;2023-07-31T12:39:16;98474.00;;;27.96;37.84
46506;BME280;32220;49.808;9.968;2023-07-31T12:41:44;98474.56;;;28.87;36.72
46506;BME280;32220;49.808;9.968;2023-07-31T12:44:12;98471.22;;;29.10;36.81
46506;BME280;32220;49.808;9.968;2023-07-31T12:46:40;98475.91;;;29.83;36.30
46506;BME280;32220;49.808;9.968;2023-07-31T12:49:08;98477.13;;;30.23;34.99
46506;BME280;32220;49.808;9.968;2023-07-31T12:51:35;98474.22;;;30.18;34.10
46506;BME280;32220;49.808;9.968;2023-07-31T12:54:05;98481.84;;;29.61;34.79
46506;BME280;32220;49.808;9.968;2023-07-31T12:56:33;98466.53;;;29.17;35.34
46506;BME280;32220;49.808;9.968;2023-07-31T12:59:01;98444.41;;;28.82;36.24
46506;BME280;32220;49.808;9.968;2023-07-31T13:01:28;98445.28;;;28.45;37.48
46506;BME280;32220;49.808;9.968;2023-07-31T13:03:56;98410.19;;;27.92;40.10
46506;BME280;32220;49.808;9.968;2023-07-31T13:06:26;98431.72;;;27.56;40.89
46506;BME280;32220;49.808;9.968;2023-07-31T13:08:54;98419.00;;;27.10;42.42
46506;BME280;32220;49.808;9.968;2023-07-31T13:11:23;98411.09;;;26.69;44.74
46506;BME280;32220;49.808;9.968;2023-07-31T13:13:51;98412.31;;;26.46;44.81
46506;BME280;32220;49.808;9.968;2023-07-31T13:16:19;98412.31;;;26.46;44.15
46506;BME280;32220;49.808;9.968;2023-07-31T13:18:47;98404.38;;;26.84;43.66
46506;BME280;32220;49.808;9.968;2023-07-31T13:21:14;98385.84;;;28.35;43.77
46506;BME280;32220;49.808;9.968;2023-07-31T13:23:42;98401.41;;;29.94;39.49
46506;BME280;32220;49.808;9.968;2023-07-31T13:26:10;98411.22;;;30.96;37.54
46506;BME280;32220;49.808;9.968;2023-07-31T13:28:40;98424.91;;;30.96;36.53
46506;BME280;32220;49.808;9.968;2023-07-31T13:31:07;98424.88;;;30.73;36.69
46506;BME280;32220;49.808;9.968;2023-07-31T13:33:37;98405.69;;;30.50;36.75
46506;BME280;32220;49.808;9.968;2023-07-31T13:36:05;98425.63;;;30.39;36.61
46506;BME280;32220;49.808;9.968;2023-07-31T13:38:32;98410.75;;;30.05;36.10
46506;BME280;32220;49.808;9.968;2023-07-31T13:41:00;98407.66;;;29.83;36.36
46506;BME280;32220;49.808;9.968;2023-07-31T13:43:28;98405.69;;;29.90;36.83
46506;BME280;32220;49.808;9.968;2023-07-31T13:45:57;98411.63;;;29.87;36.16